sensor_id;sensor_type;location;lat;lon;timestamp;P1;durP1;ratioP1;P2;durP2;ratioP2
46607;SDS011;32330;51.936;7.184;2022-07-29T00:00:57;4.35;;;1.00;;
46607;SDS011;32330;51.936;7.184;2022-07-29T00:03:23;2.85;;;0.98;;
46607;SDS011;32330;51.936;7.184;2022-07-29T00:05:48;8.02;;;1.10;;
46607;SDS011;32330;51.936;7.184;2022-07-29T00:08:14;7.15;;;1.25;;
46607;SDS011;32330;51.936;7.184;2022-07-29T00:10:40;1.88;;;1.00;;
46607;SDS011;32330;51.936;7.184;2022-07-29T00:13:06;1.90;;;0.93;;
46607;SDS011;32330;51.936;7.184;2022-07-29T00:15:32;3.08;;;0.65;;
46607;SDS011;32330;51.936;7.184;2022-07-29T00:17:57;2.85;;;1.05;;
46607;SDS011;32330;51.936;7.184;2022-07-29T00:20:23;2.63;;;1.00;;
46607;SDS011;32330;51.936;7.184;2022-07-29T00:22:49;3.35;;;1.25;;
46607;SDS011;32330;51.936;7.184;2022-07-29T00:25:14;8.13;;;1.08;;
46607;SDS011;32330;51.936;7.184;2022-07-29T00:27:40;2.25;;;0.88;;
46607;SDS011;32330;51.936;7.184;2022-07-29T00:30:06;4.35;;;1.08;;
46607;SDS011;32330;51.936;7.184;2022-07-29T00:32:32;3.45;;;1.00;;
46607;SDS011;32330;51.936;7.184;2022-07-29T00:34:58;2.60;;;0.88;;
46607;SDS011;32330;51.936;7.184;2022-07-29T00:37:43;5.70;;;1.00;;
46607;SDS011;32330;51.936;7.184;2022-07-29T00:40:08;2.03;;;0.90;;
46607;SDS011;32330;51.936;7.184;2022-07-29T00:45:26;2.83;;;0.98;;
46607;SDS011;32330;51.936;7.184;2022-07-29T00:47:52;3.83;;;1.23;;
46607;SDS011;32330;51.936;7.184;2022-07-29T00:50:18;2.67;;;1.10;;
46607;SDS011;32330;51.936;7.184;2022-07-29T00:52:43;5.57;;;1.00;;
46607;SDS011;32330;51.936;7.184;2022-07-29T00:55:10;3.63;;;0.80;;
46607;SDS011;32330;51.936;7.184;2022-07-29T00:57:37;8.35;;;1.60;;
46607;SDS011;32330;51.936;7.184;2022-07-29T01:00:04;3.05;;;1.10;;
46607;SDS011;32330;51.936;7.184;2022-07-29T01:02:32;1.90;;;0.90;;
46607;SDS011;32330;51.936;7.184;2022-07-29T01:04:59;2.20;;;1.08;;
46607;SDS011;32330;51.936;7.184;2022-07-29T01:07:25;5.22;;;1.13;;
46607;SDS011;32330;51.936;7.184;2022-07-29T01:09:52;2.00;;;0.98;;
46607;SDS011;32330;51.936;7.184;2022-07-29T01:12:25;3.10;;;0.93;;
46607;SDS011;32330;51.936;7.184;2022-07-29T01:14:53;6.75;;;1.25;;
46607;SDS011;32330;51.936;7.184;2022-07-29T01:25:17;2.55;;;1.00;;
46607;SDS011;32330;51.936;7.184;2022-07-29T01:31:00;5.53;;;1.42;;
46607;SDS011;32330;51.936;7.184;2022-07-29T01:33:28;1.73;;;0.98;;
46607;SDS011;32330;51.936;7.184;2022-07-29T01:36:16;5.97;;;1.40;;
46607;SDS011;32330;51.936;7.184;2022-07-29T01:41:35;2.60;;;1.30;;
46607;SDS011;32330;51.936;7.184;2022-07-29T01:44:15;3.35;;;0.93;;
46607;SDS011;32330;51.936;7.184;2022-07-29T01:46:55;3.63;;;0.93;;
46607;SDS011;32330;51.936;7.184;2022-07-29T01:49:29;4.63;;;1.35;;
46607;SDS011;32330;51.936;7.184;2022-07-29T01:52:01;4.97;;;1.10;;
46607;SDS011;32330;51.936;7.184;2022-07-29T01:54:42;2.58;;;1.02;;
46607;SDS011;32330;51.936;7.184;2022-07-29T01:57:11;5.45;;;0.80;;
46607;SDS011;32330;51.936;7.184;2022-07-29T01:59:40;4.57;;;1.10;;
46607;SDS011;32330;51.936;7.184;2022-07-29T02:02:08;7.45;;;1.20;;
46607;SDS011;32330;51.936;7.184;2022-07-29T02:04:36;2.83;;;1.00;;
46607;SDS011;32330;51.936;7.184;2022-07-29T02:07:05;2.50;;;1.10;;
46607;SDS011;32330;51.936;7.184;2022-07-29T02:09:33;2.53;;;0.88;;
46607;SDS011;32330;51.936;7.184;2022-07-29T02:12:01;5.72;;;1.98;;
46607;SDS011;32330;51.936;7.184;2022-07-29T02:14:28;4.25;;;1.25;;
46607;SDS011;32330;51.936;7.184;2022-07-29T02:16:58;5.70;;;1.10;;
46607;SDS011;32330;51.936;7.184;2022-07-29T02:19:27;3.05;;;1.00;;
46607;SDS011;32330;51.936;7.184;2022-07-29T02:21:54;3.67;;;1.38;;
46607;SDS011;32330;51.936;7.184;2022-07-29T02:24:22;3.33;;;1.13;;
46607;SDS011;32330;51.936;7.184;2022-07-29T02:26:49;4.25;;;1.40;;
46607;SDS011;32330;51.936;7.184;2022-07-29T02:29:16;3.00;;;1.08;;
46607;SDS011;32330;51.936;7.184;2022-07-29T02:31:46;4.38;;;1.38;;
46607;SDS011;32330;51.936;7.184;2022-07-29T02:34:15;2.75;;;1.13;;
46607;SDS011;32330;51.936;7.184;2022-07-29T02:36:41;7.63;;;1.10;;
46607;SDS011;32330;51.936;7.184;2022-07-29T02:39:08;2.15;;;1.15;;
46607;SDS011;32330;51.936;7.184;2022-07-29T02:41:46;2.10;;;0.80;;
46607;SDS011;32330;51.936;7.184;2022-07-29T02:44:20;5.60;;;1.40;;
46607;SDS011;32330;51.936;7.184;2022-07-29T02:46:57;4.43;;;1.00;;
46607;SDS011;32330;51.936;7.184;2022-07-29T02:49:36;2.58;;;0.90;;
46607;SDS011;32330;51.936;7.184;2022-07-29T02:52:31;9.45;;;1.48;;
46607;SDS011;32330;51.936;7.184;2022-07-29T02:57:34;4.75;;;1.17;;
46607;SDS011;32330;51.936;7.184;2022-07-29T03:00:26;5.00;;;1.95;;
46607;SDS011;32330;51.936;7.184;2022-07-29T03:02:54;3.35;;;0.90;;
46607;SDS011;32330;51.936;7.184;2022-07-29T03:05:23;3.00;;;1.00;;
46607;SDS011;32330;51.936;7.184;2022-07-29T03:07:51;2.15;;;0.90;;
46607;SDS011;32330;51.936;7.184;2022-07-29T03:10:20;2.28;;;0.93;;
46607;SDS011;32330;51.936;7.184;2022-07-29T03:12:47;3.63;;;1.00;;
46607;SDS011;32330;51.936;7.184;2022-07-29T03:15:13;5.95;;;1.40;;
46607;SDS011;32330;51.936;7.184;2022-07-29T03:17:39;4.55;;;1.00;;
46607;SDS011;32330;51.936;7.184;2022-07-29T03:20:06;2.78;;;1.15;;
46607;SDS011;32330;51.936;7.184;2022-07-29T03:22:32;6.00;;;1.65;;
46607;SDS011;32330;51.936;7.184;2022-07-29T03:25:07;2.90;;;1.25;;
46607;SDS011;32330;51.936;7.184;2022-07-29T03:27:33;2.65;;;1.25;;
46607;SDS011;32330;51.936;7.184;2022-07-29T03:29:59;4.28;;;1.38;;
46607;SDS011;32330;51.936;7.184;2022-07-29T03:32:25;3.55;;;1.17;;
46607;SDS011;32330;51.936;7.184;2022-07-29T03:34:50;6.50;;;1.05;;
46607;SDS011;32330;51.936;7.184;2022-07-29T03:37:16;5.82;;;1.35;;
46607;SDS011;32330;51.936;7.184;2022-07-29T03:39:41;6.50;;;1.60;;
46607;SDS011;32330;51.936;7.184;2022-07-29T03:42:10;3.13;;;1.20;;
46607;SDS011;32330;51.936;7.184;2022-07-29T03:44:39;4.40;;;1.23;;
46607;SDS011;32330;51.936;7.184;2022-07-29T03:47:07;2.58;;;1.27;;
46607;SDS011;32330;51.936;7.184;2022-07-29T03:49:34;3.35;;;1.33;;
46607;SDS011;32330;51.936;7.184;2022-07-29T03:52:01;6.00;;;1.63;;
46607;SDS011;32330;51.936;7.184;2022-07-29T03:54:27;3.28;;;1.23;;
46607;SDS011;32330;51.936;7.184;2022-07-29T03:56:53;2.70;;;1.10;;
46607;SDS011;32330;51.936;7.184;2022-07-29T03:59:23;2.70;;;1.30;;
46607;SDS011;32330;51.936;7.184;2022-07-29T04:01:49;3.33;;;1.13;;
46607;SDS011;32330;51.936;7.184;2022-07-29T04:04:15;2.63;;;1.00;;
46607;SDS011;32330;51.936;7.184;2022-07-29T04:06:42;4.25;;;1.38;;
46607;SDS011;32330;51.936;7.184;2022-07-29T04:09:09;2.83;;;1.20;;
46607;SDS011;32330;51.936;7.184;2022-07-29T04:11:36;3.00;;;0.90;;
46607;SDS011;32330;51.936;7.184;2022-07-29T04:14:03;3.08;;;1.20;;
46607;SDS011;32330;51.936;7.184;2022-07-29T04:16:28;3.30;;;1.27;;
46607;SDS011;32330;51.936;7.184;2022-07-29T04:18:54;3.13;;;1.30;;
46607;SDS011;32330;51.936;7.184;2022-07-29T04:21:20;2.45;;;1.25;;
46607;SDS011;32330;51.936;7.184;2022-07-29T04:23:45;3.13;;;1.42;;
46607;SDS011;32330;51.936;7.184;2022-07-29T04:26:14;2.92;;;1.52;;
46607;SDS011;32330;51.936;7.184;2022-07-29T04:28:40;2.75;;;1.05;;
46607;SDS011;32330;51.936;7.184;2022-07-29T04:31:07;6.30;;;1.55;;
46607;SDS011;32330;51.936;7.184;2022-07-29T04:33:33;5.22;;;1.23;;
46607;SDS011;32330;51.936;7.184;2022-07-29T04:35:59;2.85;;;1.35;;
46607;SDS011;32330;51.936;7.184;2022-07-29T04:38:24;3.85;;;1.30;;
46607;SDS011;32330;51.936;7.184;2022-07-29T04:40:50;5.03;;;1.67;;
46607;SDS011;32330;51.936;7.184;2022-07-29T04:43:15;2.92;;;1.33;;
46607;SDS011;32330;51.936;7.184;2022-07-29T04:45:41;3.33;;;1.35;;
46607;SDS011;32330;51.936;7.184;2022-07-29T04:48:07;2.47;;;1.35;;
46607;SDS011;32330;51.936;7.184;2022-07-29T04:50:32;4.55;;;2.25;;
46607;SDS011;32330;51.936;7.184;2022-07-29T04:52:58;5.45;;;1.63;;
46607;SDS011;32330;51.936;7.184;2022-07-29T04:55:23;3.15;;;1.48;;
46607;SDS011;32330;51.936;7.184;2022-07-29T04:57:50;3.97;;;1.48;;
46607;SDS011;32330;51.936;7.184;2022-07-29T05:00:15;2.95;;;1.17;;
46607;SDS011;32330;51.936;7.184;2022-07-29T05:02:41;7.25;;;2.25;;
46607;SDS011;32330;51.936;7.184;2022-07-29T05:05:07;6.32;;;1.30;;
46607;SDS011;32330;51.936;7.184;2022-07-29T05:07:33;5.07;;;1.38;;
46607;SDS011;32330;51.936;7.184;2022-07-29T05:09:58;6.97;;;1.55;;
46607;SDS011;32330;51.936;7.184;2022-07-29T05:12:24;2.45;;;1.38;;
46607;SDS011;32330;51.936;7.184;2022-07-29T05:14:50;5.28;;;1.20;;
46607;SDS011;32330;51.936;7.184;2022-07-29T05:17:16;7.80;;;1.55;;
46607;SDS011;32330;51.936;7.184;2022-07-29T05:19:42;3.08;;;1.40;;
46607;SDS011;32330;51.936;7.184;2022-07-29T05:22:07;6.75;;;2.00;;
46607;SDS011;32330;51.936;7.184;2022-07-29T05:24:33;4.03;;;1.85;;
46607;SDS011;32330;51.936;7.184;2022-07-29T05:26:58;5.10;;;1.73;;
46607;SDS011;32330;51.936;7.184;2022-07-29T05:29:24;5.38;;;1.77;;
46607;SDS011;32330;51.936;7.184;2022-07-29T05:31:50;5.35;;;2.38;;
46607;SDS011;32330;51.936;7.184;2022-07-29T05:34:17;4.53;;;1.95;;
46607;SDS011;32330;51.936;7.184;2022-07-29T05:36:43;11.82;;;2.00;;
46607;SDS011;32330;51.936;7.184;2022-07-29T05:39:10;6.32;;;2.35;;
46607;SDS011;32330;51.936;7.184;2022-07-29T05:41:35;5.68;;;2.58;;
46607;SDS011;32330;51.936;7.184;2022-07-29T05:44:01;4.60;;;2.00;;
46607;SDS011;32330;51.936;7.184;2022-07-29T05:46:27;8.60;;;2.30;;
46607;SDS011;32330;51.936;7.184;2022-07-29T05:48:53;3.10;;;2.08;;
46607;SDS011;32330;51.936;7.184;2022-07-29T05:51:18;3.72;;;1.80;;
46607;SDS011;32330;51.936;7.184;2022-07-29T05:53:44;6.88;;;2.20;;
46607;SDS011;32330;51.936;7.184;2022-07-29T05:56:09;5.00;;;2.00;;
46607;SDS011;32330;51.936;7.184;2022-07-29T05:58:35;3.72;;;1.98;;
46607;SDS011;32330;51.936;7.184;2022-07-29T06:01:01;6.22;;;2.03;;
46607;SDS011;32330;51.936;7.184;2022-07-29T06:03:27;4.57;;;1.80;;
46607;SDS011;32330;51.936;7.184;2022-07-29T06:05:52;6.35;;;2.50;;
46607;SDS011;32330;51.936;7.184;2022-07-29T06:08:18;4.93;;;2.55;;
46607;SDS011;32330;51.936;7.184;2022-07-29T06:10:43;5.10;;;1.77;;
46607;SDS011;32330;51.936;7.184;2022-07-29T06:13:10;3.05;;;1.88;;
46607;SDS011;32330;51.936;7.184;2022-07-29T06:15:36;2.95;;;1.70;;
46607;SDS011;32330;51.936;7.184;2022-07-29T06:18:02;4.25;;;2.10;;
46607;SDS011;32330;51.936;7.184;2022-07-29T06:20:28;5.30;;;2.30;;
46607;SDS011;32330;51.936;7.184;2022-07-29T06:22:55;3.95;;;2.03;;
46607;SDS011;32330;51.936;7.184;2022-07-29T06:25:21;5.18;;;2.55;;
46607;SDS011;32330;51.936;7.184;2022-07-29T06:27:47;4.25;;;1.98;;
46607;SDS011;32330;51.936;7.184;2022-07-29T06:30:12;4.10;;;2.22;;
46607;SDS011;32330;51.936;7.184;2022-07-29T06:32:38;10.63;;;2.30;;
46607;SDS011;32330;51.936;7.184;2022-07-29T06:35:04;3.15;;;1.83;;
46607;SDS011;32330;51.936;7.184;2022-07-29T06:37:30;6.68;;;2.30;;
46607;SDS011;32330;51.936;7.184;2022-07-29T06:39:56;3.75;;;2.10;;
46607;SDS011;32330;51.936;7.184;2022-07-29T06:42:43;3.75;;;2.17;;
46607;SDS011;32330;51.936;7.184;2022-07-29T06:45:09;6.18;;;1.95;;
46607;SDS011;32330;51.936;7.184;2022-07-29T06:47:36;3.17;;;1.83;;
46607;SDS011;32330;51.936;7.184;2022-07-29T06:50:02;4.50;;;2.30;;
46607;SDS011;32330;51.936;7.184;2022-07-29T06:52:28;3.65;;;2.08;;
46607;SDS011;32330;51.936;7.184;2022-07-29T06:54:54;3.33;;;2.17;;
46607;SDS011;32330;51.936;7.184;2022-07-29T06:57:20;3.75;;;1.90;;
46607;SDS011;32330;51.936;7.184;2022-07-29T06:59:46;8.13;;;2.83;;
46607;SDS011;32330;51.936;7.184;2022-07-29T07:02:12;4.75;;;2.85;;
46607;SDS011;32330;51.936;7.184;2022-07-29T07:04:38;3.83;;;2.30;;
46607;SDS011;32330;51.936;7.184;2022-07-29T07:07:03;9.70;;;2.97;;
46607;SDS011;32330;51.936;7.184;2022-07-29T07:09:29;6.25;;;2.53;;
46607;SDS011;32330;51.936;7.184;2022-07-29T07:11:54;6.57;;;2.55;;
46607;SDS011;32330;51.936;7.184;2022-07-29T07:14:20;4.75;;;2.50;;
46607;SDS011;32330;51.936;7.184;2022-07-29T07:16:45;6.65;;;2.90;;
46607;SDS011;32330;51.936;7.184;2022-07-29T07:19:11;6.95;;;2.88;;
46607;SDS011;32330;51.936;7.184;2022-07-29T07:21:37;5.35;;;2.63;;
46607;SDS011;32330;51.936;7.184;2022-07-29T07:24:02;5.80;;;2.42;;
46607;SDS011;32330;51.936;7.184;2022-07-29T07:26:28;4.05;;;2.20;;
46607;SDS011;32330;51.936;7.184;2022-07-29T07:28:54;5.47;;;3.15;;
46607;SDS011;32330;51.936;7.184;2022-07-29T07:31:19;5.35;;;2.83;;
46607;SDS011;32330;51.936;7.184;2022-07-29T07:33:45;4.68;;;2.10;;
46607;SDS011;32330;51.936;7.184;2022-07-29T07:36:10;3.47;;;2.35;;
46607;SDS011;32330;51.936;7.184;2022-07-29T07:38:36;5.20;;;2.22;;
46607;SDS011;32330;51.936;7.184;2022-07-29T07:41:02;5.90;;;2.58;;
46607;SDS011;32330;51.936;7.184;2022-07-29T07:43:28;6.82;;;2.40;;
46607;SDS011;32330;51.936;7.184;2022-07-29T07:45:53;4.07;;;1.90;;
46607;SDS011;32330;51.936;7.184;2022-07-29T07:48:19;5.03;;;2.40;;
46607;SDS011;32330;51.936;7.184;2022-07-29T07:50:45;5.70;;;2.30;;
46607;SDS011;32330;51.936;7.184;2022-07-29T07:53:10;3.75;;;2.50;;
46607;SDS011;32330;51.936;7.184;2022-07-29T07:55:40;3.70;;;2.50;;
46607;SDS011;32330;51.936;7.184;2022-07-29T07:58:06;2.80;;;2.00;;
46607;SDS011;32330;51.936;7.184;2022-07-29T08:00:32;3.55;;;2.38;;
46607;SDS011;32330;51.936;7.184;2022-07-29T08:02:57;3.88;;;2.92;;
46607;SDS011;32330;51.936;7.184;2022-07-29T08:05:23;4.22;;;2.33;;
46607;SDS011;32330;51.936;7.184;2022-07-29T08:07:49;4.90;;;2.33;;
46607;SDS011;32330;51.936;7.184;2022-07-29T08:10:15;4.32;;;2.00;;
46607;SDS011;32330;51.936;7.184;2022-07-29T08:13:01;4.20;;;2.10;;
46607;SDS011;32330;51.936;7.184;2022-07-29T08:15:28;4.10;;;2.30;;
46607;SDS011;32330;51.936;7.184;2022-07-29T08:17:53;7.07;;;2.42;;
46607;SDS011;32330;51.936;7.184;2022-07-29T08:20:19;8.40;;;1.95;;
46607;SDS011;32330;51.936;7.184;2022-07-29T08:22:48;3.20;;;2.22;;
46607;SDS011;32330;51.936;7.184;2022-07-29T08:25:13;3.35;;;1.98;;
46607;SDS011;32330;51.936;7.184;2022-07-29T08:27:39;4.80;;;2.28;;
46607;SDS011;32330;51.936;7.184;2022-07-29T08:30:04;5.57;;;2.45;;
46607;SDS011;32330;51.936;7.184;2022-07-29T08:32:30;6.00;;;2.28;;
46607;SDS011;32330;51.936;7.184;2022-07-29T08:34:56;4.00;;;2.38;;
46607;SDS011;32330;51.936;7.184;2022-07-29T08:37:22;6.22;;;2.17;;
46607;SDS011;32330;51.936;7.184;2022-07-29T08:39:47;4.85;;;2.55;;
46607;SDS011;32330;51.936;7.184;2022-07-29T08:42:13;5.53;;;2.20;;
46607;SDS011;32330;51.936;7.184;2022-07-29T08:44:39;4.57;;;2.10;;
46607;SDS011;32330;51.936;7.184;2022-07-29T08:47:04;3.88;;;2.10;;
46607;SDS011;32330;51.936;7.184;2022-07-29T08:49:32;19.80;;;3.35;;
46607;SDS011;32330;51.936;7.184;2022-07-29T08:51:58;5.45;;;2.22;;
46607;SDS011;32330;51.936;7.184;2022-07-29T08:54:25;7.45;;;2.35;;
46607;SDS011;32330;51.936;7.184;2022-07-29T08:56:52;5.55;;;2.67;;
46607;SDS011;32330;51.936;7.184;2022-07-29T08:59:19;2.80;;;2.33;;
46607;SDS011;32330;51.936;7.184;2022-07-29T09:01:47;6.63;;;2.70;;
46607;SDS011;32330;51.936;7.184;2022-07-29T09:04:16;4.30;;;2.38;;
46607;SDS011;32330;51.936;7.184;2022-07-29T09:06:43;6.60;;;2.83;;
46607;SDS011;32330;51.936;7.184;2022-07-29T09:09:11;5.18;;;2.85;;
46607;SDS011;32330;51.936;7.184;2022-07-29T09:11:38;6.75;;;3.45;;
46607;SDS011;32330;51.936;7.184;2022-07-29T09:14:04;6.35;;;2.72;;
46607;SDS011;32330;51.936;7.184;2022-07-29T09:16:50;7.50;;;3.38;;
46607;SDS011;32330;51.936;7.184;2022-07-29T09:19:25;4.47;;;2.67;;
46607;SDS011;32330;51.936;7.184;2022-07-29T09:21:56;7.53;;;3.40;;
46607;SDS011;32330;51.936;7.184;2022-07-29T09:24:24;5.07;;;2.90;;
46607;SDS011;32330;51.936;7.184;2022-07-29T09:26:51;4.65;;;2.83;;
46607;SDS011;32330;51.936;7.184;2022-07-29T09:29:20;5.07;;;2.75;;
46607;SDS011;32330;51.936;7.184;2022-07-29T09:31:49;2.97;;;2.65;;
46607;SDS011;32330;51.936;7.184;2022-07-29T09:34:16;7.22;;;2.85;;
46607;SDS011;32330;51.936;7.184;2022-07-29T09:39:13;6.40;;;2.80;;
46607;SDS011;32330;51.936;7.184;2022-07-29T09:41:44;4.28;;;2.83;;
46607;SDS011;32330;51.936;7.184;2022-07-29T09:44:15;4.80;;;2.85;;
46607;SDS011;32330;51.936;7.184;2022-07-29T09:46:52;6.50;;;3.17;;
46607;SDS011;32330;51.936;7.184;2022-07-29T09:49:18;3.95;;;2.90;;
46607;SDS011;32330;51.936;7.184;2022-07-29T09:51:43;9.30;;;3.13;;
46607;SDS011;32330;51.936;7.184;2022-07-29T09:54:22;5.28;;;3.40;;
46607;SDS011;32330;51.936;7.184;2022-07-29T09:56:52;6.25;;;3.28;;
46607;SDS011;32330;51.936;7.184;2022-07-29T09:59:18;5.05;;;3.30;;
46607;SDS011;32330;51.936;7.184;2022-07-29T10:01:51;5.55;;;3.25;;
46607;SDS011;32330;51.936;7.184;2022-07-29T10:04:17;4.70;;;2.95;;
46607;SDS011;32330;51.936;7.184;2022-07-29T10:06:59;8.30;;;3.00;;
46607;SDS011;32330;51.936;7.184;2022-07-29T10:09:26;3.65;;;2.67;;
46607;SDS011;32330;51.936;7.184;2022-07-29T10:12:11;4.47;;;2.60;;
46607;SDS011;32330;51.936;7.184;2022-07-29T10:14:41;5.18;;;3.40;;
46607;SDS011;32330;51.936;7.184;2022-07-29T10:17:08;7.40;;;3.85;;
46607;SDS011;32330;51.936;7.184;2022-07-29T10:19:35;5.18;;;3.90;;
46607;SDS011;32330;51.936;7.184;2022-07-29T10:22:03;7.53;;;3.85;;
46607;SDS011;32330;51.936;7.184;2022-07-29T10:24:30;5.82;;;3.85;;
46607;SDS011;32330;51.936;7.184;2022-07-29T10:26:57;7.65;;;4.07;;
46607;SDS011;32330;51.936;7.184;2022-07-29T10:29:25;5.45;;;3.22;;
46607;SDS011;32330;51.936;7.184;2022-07-29T10:34:23;5.88;;;2.60;;
46607;SDS011;32330;51.936;7.184;2022-07-29T10:42:08;9.15;;;3.03;;
46607;SDS011;32330;51.936;7.184;2022-07-29T10:44:40;15.30;;;12.35;;
46607;SDS011;32330;51.936;7.184;2022-07-29T10:47:07;6.78;;;3.67;;
46607;SDS011;32330;51.936;7.184;2022-07-29T10:49:54;4.85;;;3.33;;
46607;SDS011;32330;51.936;7.184;2022-07-29T10:52:23;6.95;;;3.17;;
46607;SDS011;32330;51.936;7.184;2022-07-29T10:54:52;8.57;;;3.30;;
46607;SDS011;32330;51.936;7.184;2022-07-29T11:00:08;8.43;;;3.55;;
46607;SDS011;32330;51.936;7.184;2022-07-29T11:07:33;4.50;;;3.05;;
46607;SDS011;32330;51.936;7.184;2022-07-29T11:15:04;5.50;;;2.92;;
46607;SDS011;32330;51.936;7.184;2022-07-29T11:23:25;6.78;;;3.55;;
46607;SDS011;32330;51.936;7.184;2022-07-29T11:31:37;7.70;;;3.30;;
46607;SDS011;32330;51.936;7.184;2022-07-29T11:39:29;5.15;;;3.05;;
46607;SDS011;32330;51.936;7.184;2022-07-29T11:42:32;5.03;;;2.95;;
46607;SDS011;32330;51.936;7.184;2022-07-29T11:47:24;6.43;;;3.22;;
46607;SDS011;32330;51.936;7.184;2022-07-29T11:49:51;11.18;;;2.67;;
46607;SDS011;32330;51.936;7.184;2022-07-29T11:52:18;9.35;;;3.15;;
46607;SDS011;32330;51.936;7.184;2022-07-29T11:54:44;5.00;;;2.95;;
46607;SDS011;32330;51.936;7.184;2022-07-29T11:57:12;6.57;;;2.55;;
46607;SDS011;32330;51.936;7.184;2022-07-29T11:59:41;7.00;;;2.65;;
46607;SDS011;32330;51.936;7.184;2022-07-29T12:02:08;5.80;;;2.70;;
46607;SDS011;32330;51.936;7.184;2022-07-29T12:04:56;5.00;;;2.47;;
46607;SDS011;32330;51.936;7.184;2022-07-29T12:07:28;7.38;;;3.22;;
46607;SDS011;32330;51.936;7.184;2022-07-29T12:09:54;5.20;;;2.50;;
46607;SDS011;32330;51.936;7.184;2022-07-29T12:12:20;8.23;;;4.13;;
46607;SDS011;32330;51.936;7.184;2022-07-29T12:14:46;7.25;;;2.22;;
46607;SDS011;32330;51.936;7.184;2022-07-29T12:17:25;5.05;;;2.92;;
46607;SDS011;32330;51.936;7.184;2022-07-29T12:19:52;4.53;;;2.38;;
46607;SDS011;32330;51.936;7.184;2022-07-29T12:22:25;6.97;;;2.80;;
46607;SDS011;32330;51.936;7.184;2022-07-29T12:24:54;7.63;;;2.38;;
46607;SDS011;32330;51.936;7.184;2022-07-29T12:27:21;4.53;;;2.40;;
46607;SDS011;32330;51.936;7.184;2022-07-29T12:29:57;9.00;;;2.33;;
46607;SDS011;32330;51.936;7.184;2022-07-29T12:32:23;8.95;;;2.53;;
46607;SDS011;32330;51.936;7.184;2022-07-29T12:34:49;4.18;;;2.08;;
46607;SDS011;32330;51.936;7.184;2022-07-29T12:37:15;4.80;;;2.40;;
46607;SDS011;32330;51.936;7.184;2022-07-29T12:39:41;3.83;;;2.30;;
46607;SDS011;32330;51.936;7.184;2022-07-29T12:42:13;8.30;;;2.55;;
46607;SDS011;32330;51.936;7.184;2022-07-29T12:44:47;3.85;;;2.42;;
46607;SDS011;32330;51.936;7.184;2022-07-29T12:47:13;5.05;;;2.58;;
46607;SDS011;32330;51.936;7.184;2022-07-29T12:49:40;6.90;;;2.88;;
46607;SDS011;32330;51.936;7.184;2022-07-29T12:54:52;3.67;;;1.80;;
46607;SDS011;32330;51.936;7.184;2022-07-29T12:57:17;4.82;;;2.05;;
46607;SDS011;32330;51.936;7.184;2022-07-29T12:59:43;6.55;;;2.40;;
46607;SDS011;32330;51.936;7.184;2022-07-29T13:02:20;5.85;;;2.33;;
46607;SDS011;32330;51.936;7.184;2022-07-29T13:04:56;6.05;;;3.10;;
46607;SDS011;32330;51.936;7.184;2022-07-29T13:07:26;4.30;;;1.95;;
46607;SDS011;32330;51.936;7.184;2022-07-29T13:09:54;8.23;;;2.03;;
46607;SDS011;32330;51.936;7.184;2022-07-29T13:15:40;3.67;;;1.67;;
46607;SDS011;32330;51.936;7.184;2022-07-29T13:20:55;2.90;;;1.63;;
46607;SDS011;32330;51.936;7.184;2022-07-29T13:23:22;3.20;;;1.65;;
46607;SDS011;32330;51.936;7.184;2022-07-29T13:25:47;8.70;;;2.25;;
46607;SDS011;32330;51.936;7.184;2022-07-29T13:28:13;4.60;;;1.80;;
46607;SDS011;32330;51.936;7.184;2022-07-29T13:30:39;5.63;;;1.83;;
46607;SDS011;32330;51.936;7.184;2022-07-29T13:33:05;8.30;;;2.28;;
46607;SDS011;32330;51.936;7.184;2022-07-29T13:35:31;4.53;;;2.20;;
46607;SDS011;32330;51.936;7.184;2022-07-29T13:37:57;5.60;;;2.03;;
46607;SDS011;32330;51.936;7.184;2022-07-29T13:40:23;7.88;;;1.77;;
46607;SDS011;32330;51.936;7.184;2022-07-29T13:42:49;7.07;;;2.10;;
46607;SDS011;32330;51.936;7.184;2022-07-29T13:45:15;7.32;;;2.00;;
46607;SDS011;32330;51.936;7.184;2022-07-29T13:47:41;5.93;;;1.70;;
46607;SDS011;32330;51.936;7.184;2022-07-29T13:50:07;3.80;;;2.03;;
46607;SDS011;32330;51.936;7.184;2022-07-29T13:52:35;3.72;;;1.85;;
46607;SDS011;32330;51.936;7.184;2022-07-29T13:55:02;3.83;;;1.70;;
46607;SDS011;32330;51.936;7.184;2022-07-29T13:57:29;5.40;;;1.77;;
46607;SDS011;32330;51.936;7.184;2022-07-29T13:59:55;5.32;;;2.67;;
46607;SDS011;32330;51.936;7.184;2022-07-29T14:02:21;5.88;;;1.80;;
46607;SDS011;32330;51.936;7.184;2022-07-29T14:04:46;11.73;;;2.00;;
46607;SDS011;32330;51.936;7.184;2022-07-29T14:07:12;6.95;;;1.90;;
46607;SDS011;32330;51.936;7.184;2022-07-29T14:09:38;3.72;;;1.70;;
46607;SDS011;32330;51.936;7.184;2022-07-29T14:12:04;7.70;;;1.88;;
46607;SDS011;32330;51.936;7.184;2022-07-29T14:14:29;3.75;;;1.50;;
46607;SDS011;32330;51.936;7.184;2022-07-29T14:16:57;5.10;;;1.98;;
46607;SDS011;32330;51.936;7.184;2022-07-29T14:19:23;5.35;;;2.20;;
46607;SDS011;32330;51.936;7.184;2022-07-29T14:21:48;5.28;;;1.90;;
46607;SDS011;32330;51.936;7.184;2022-07-29T14:24:14;4.25;;;1.88;;
46607;SDS011;32330;51.936;7.184;2022-07-29T14:26:39;5.43;;;1.70;;
46607;SDS011;32330;51.936;7.184;2022-07-29T14:29:05;8.45;;;2.42;;
46607;SDS011;32330;51.936;7.184;2022-07-29T14:31:30;11.63;;;2.00;;
46607;SDS011;32330;51.936;7.184;2022-07-29T14:33:56;6.18;;;1.92;;
46607;SDS011;32330;51.936;7.184;2022-07-29T14:36:21;6.47;;;1.98;;
46607;SDS011;32330;51.936;7.184;2022-07-29T14:38:47;3.70;;;1.55;;
46607;SDS011;32330;51.936;7.184;2022-07-29T14:41:13;3.75;;;1.45;;
46607;SDS011;32330;51.936;7.184;2022-07-29T14:43:38;5.10;;;1.77;;
46607;SDS011;32330;51.936;7.184;2022-07-29T14:46:04;5.45;;;2.60;;
46607;SDS011;32330;51.936;7.184;2022-07-29T14:48:29;8.02;;;1.80;;
46607;SDS011;32330;51.936;7.184;2022-07-29T14:50:55;5.45;;;1.90;;
46607;SDS011;32330;51.936;7.184;2022-07-29T14:53:21;5.38;;;2.28;;
46607;SDS011;32330;51.936;7.184;2022-07-29T14:55:47;6.50;;;2.03;;
46607;SDS011;32330;51.936;7.184;2022-07-29T14:58:13;7.28;;;2.00;;
46607;SDS011;32330;51.936;7.184;2022-07-29T15:00:38;6.88;;;1.98;;
46607;SDS011;32330;51.936;7.184;2022-07-29T15:03:04;4.55;;;2.30;;
46607;SDS011;32330;51.936;7.184;2022-07-29T15:05:30;6.63;;;2.20;;
46607;SDS011;32330;51.936;7.184;2022-07-29T15:07:56;8.65;;;2.40;;
46607;SDS011;32330;51.936;7.184;2022-07-29T15:10:22;2.90;;;1.40;;
46607;SDS011;32330;51.936;7.184;2022-07-29T15:12:48;6.43;;;2.35;;
46607;SDS011;32330;51.936;7.184;2022-07-29T15:15:13;4.15;;;1.60;;
46607;SDS011;32330;51.936;7.184;2022-07-29T15:17:39;6.55;;;1.80;;
46607;SDS011;32330;51.936;7.184;2022-07-29T15:20:05;3.65;;;1.75;;
46607;SDS011;32330;51.936;7.184;2022-07-29T15:22:31;4.60;;;2.10;;
46607;SDS011;32330;51.936;7.184;2022-07-29T15:24:57;4.50;;;1.80;;
46607;SDS011;32330;51.936;7.184;2022-07-29T15:27:22;3.80;;;1.77;;
46607;SDS011;32330;51.936;7.184;2022-07-29T15:29:48;6.82;;;1.90;;
46607;SDS011;32330;51.936;7.184;2022-07-29T15:32:13;3.88;;;2.10;;
46607;SDS011;32330;51.936;7.184;2022-07-29T15:34:39;7.72;;;2.30;;
46607;SDS011;32330;51.936;7.184;2022-07-29T15:37:05;7.68;;;2.85;;
46607;SDS011;32330;51.936;7.184;2022-07-29T15:39:30;5.70;;;1.83;;
46607;SDS011;32330;51.936;7.184;2022-07-29T15:41:56;9.32;;;2.63;;
46607;SDS011;32330;51.936;7.184;2022-07-29T15:44:24;3.60;;;1.67;;
46607;SDS011;32330;51.936;7.184;2022-07-29T15:46:49;5.32;;;1.90;;
46607;SDS011;32330;51.936;7.184;2022-07-29T15:49:27;3.10;;;1.35;;
46607;SDS011;32330;51.936;7.184;2022-07-29T15:51:58;6.20;;;1.60;;
46607;SDS011;32330;51.936;7.184;2022-07-29T15:54:24;5.32;;;2.33;;
46607;SDS011;32330;51.936;7.184;2022-07-29T15:56:50;4.10;;;1.73;;
46607;SDS011;32330;51.936;7.184;2022-07-29T15:59:15;4.40;;;1.85;;
46607;SDS011;32330;51.936;7.184;2022-07-29T16:01:41;6.32;;;1.90;;